Mateus Martins

Chefscout - Internacional
2 Sep 2027
Donnerstag
Verarbeitung

Persönlichkeit

Anpassungsfähigkeit (13) Ehrgeiz (18) Kontroverse (1) Loyalität (12) Druck (12) Professionalität (9) Fairness (12) Temperament (1)

Profil

Trainerstil Demokratisch
Lizenz Kontinentale Pro
Entschlossenheit 7
Menschenführung 10
Motivation 12
Disziplin 12
Arbeitszufriedenheit
72%
Ermüdung
0%
Rolle Chefscout
Gehalt 83.4K p/W
Vertrag 14.03.2029

Leistung

Verhalten Gut
Trainingseffektivität
36%
Spielerentwicklung
35%
Verletzungsprävention
60%
Taktische Umsetzung
40%

Letzte Ereignisse

Nahm an einer Scouting-Besprechung teil jetzt
Empfahl ein Transferziel jetzt
Spieler begutachtet 7T her
Nahm an einer Scouting-Besprechung teil 7T her
Nahm an einer Scouting-Besprechung teil 7T her
Empfahl ein Transferziel 7T her
Nahm an einer Scouting-Besprechung teil 7T her
Spieler begutachtet 14T her

Aktuell beobachtet

241
Spieler Verein Status Fähigkeit Vertrauen Beobachtet Zuletzt beobachtet Letzte Stimme
Henry Mosquera Bragantino Auf Shortlist 125 / 129 40% 2 23.08.2027 Mehr Infos nötig
Benedict Hollerbach Mainz 05 Aktiv 153 / 146 40% 2 23.08.2027 -
Nuno Moreira Vasco da Gama Aktiv 130 / 132 40% 4 22.08.2027 -
Samuel Lino Flamengo Aktiv 140 / 141 40% 3 22.08.2027 -
Alexis Cuello San Lorenzo Aktiv 121 / 121 40% 1 22.08.2027 -
Osher Davida Maccabi Tel Aviv Aktiv 131 / 124 40% 1 21.08.2027 -
Maurício Palmeiras Aktiv 144 / 140 40% 1 21.08.2027 -
Iván Angulo Orlando City Aktiv 137 / 131 40% 1 21.08.2027 -
Donyell Malen AS Roma Aktiv 166 / 157 40% 7 19.08.2027 -
Hélio Varela Maccabi Tel Aviv Aktiv 130 / 121 40% 1 19.08.2027 -
Romano Schmid Frosinone Aktiv 155 / 152 40% 1 19.08.2027 -
Assane Diao Lazio Aktiv 150 / 151 40% 3 18.08.2027 -
Dany Mota Monza Aktiv 142 / 128 40% 1 18.08.2027 -
Andrea Colpani Monza Aktiv 136 / 137 40% 1 16.08.2027 -
Jesús Rodríguez Como Aktiv 144 / 156 40% 2 14.08.2027 -
Nahuel Molina AS Roma Aktiv 152 / 144 40% 1 13.08.2027 -
Duvan Rangel La Equidad Aktiv 143 / 138 40% 1 13.08.2027 -
Matías Soulé AS Roma Aktiv 153 / 163 40% 3 12.08.2027 -
Nicolò Zaniolo Udinese Aktiv 155 / 149 40% 2 11.08.2027 -
Unai Gómez Udinese Aktiv 147 / 138 40% 1 11.08.2027 -
Jack Rudoni Coventry City Aktiv 149 / 141 40% 4 09.08.2027 -
Ryoya Morishita Blackburn Rovers Aktiv 135 / 130 40% 1 09.08.2027 -
Jacob Ramsey Newcastle United Aktiv 154 / 160 40% 4 08.08.2027 -
Nicolas Jackson Aston Villa Abgelehnt 154 / 146 40% 5 08.08.2027 Ablehnen
Othmane Maamma Watford Aktiv 140 / 131 40% 1 08.08.2027 -
Tom Fellows Southampton Aktiv 140 / 129 40% 8 07.08.2027 -
Zian Flemming Ipswich Town Aktiv 132 / 139 40% 1 07.08.2027 -
Derensili Sanches Fernandes Huddersfield Town Aktiv 129 / 132 40% 1 07.08.2027 -
Kasey McAteer Ipswich Town Aktiv 144 / 141 40% 2 06.08.2027 -
Riley McGree Middlesbrough Aktiv 142 / 136 40% 3 03.08.2027 -
Guille Rosas Gijón Aktiv 134 / 143 40% 1 03.08.2027 -
Koki Saito Queens Park Rangers Aktiv 132 / 122 40% 1 03.08.2027 -
Alexis Saelemaekers AC Milan Aktiv 164 / 150 40% 1 02.08.2027 -
Léo Scienza Southampton Aktiv 146 / 134 40% 1 02.08.2027 -
Andre Brooks Sheffield United Aktiv 143 / 135 40% 1 12.07.2027 -
Gonzalo Fulham Aktiv 143 / 140 40% 8 31.05.2027 -
Georginio Rutter Brighton Aktiv 155 / 150 40% 5 31.05.2027 -
Keinan Davis Udinese Aktiv 140 / 130 40% 1 31.05.2027 -
Xavi Simons Tottenham Aktiv 169 / 165 40% 3 30.05.2027 -
Harry Wilson Leeds United Aktiv 142 / 147 40% 3 30.05.2027 -
Amadou Onana Aston Villa Aktiv 152 / 160 40% 2 30.05.2027 -
Curtis Jones Inter Aktiv 150 / 155 40% 2 30.05.2027 -
Hector Ramirez Newcastle United Aktiv 164 / 153 40% 1 30.05.2027 -
Adrien Truffert Bournemouth Aktiv 142 / 146 40% 1 29.05.2027 Mehr Infos nötig
Ousmane Diomande Nottingham Forest Aktiv 152 / 148 40% 1 29.05.2027 -
Luke McNally Bristol City Aktiv 141 / 130 40% 1 29.05.2027 -
Carlos Vicente Birmingham Aktiv 145 / 147 40% 9 28.05.2027 -
Dango Ouattara Brentford Aktiv 158 / 138 40% 5 26.05.2027 -
Kerem Aktürkoğlu Fenerbahce Aktiv 134 / 137 40% 3 26.05.2027 -
Borja Sainz Fiorentina Aktiv 139 / 139 40% 2 26.05.2027 -
Kevin Fulham Aktiv 143 / 145 40% 2 26.05.2027 -
Mats Wieffer Brighton Aktiv 157 / 152 40% 3 23.05.2027 -
John McGinn Aston Villa Aktiv 139 / 152 40% 2 22.05.2027 -
Sorba Thomas Stoke City Aktiv 127 / 134 40% 3 21.05.2027 -
Kenan Yıldız Juventus Aktiv 162 / 172 40% 3 21.05.2027 -
Yeremy Pino Crystal Palace Aktiv 159 / 144 40% 1 21.05.2027 -
Marcus Edwards Burnley Aktiv 131 / 145 40% 3 19.05.2027 -
Luís Henrique Inter Aktiv 141 / 137 40% 1 18.05.2027 -
Callum Hudson-Odoi Nottingham Forest Aktiv 142 / 143 40% 2 17.05.2027 -
Welington Southampton Aktiv 134 / 124 40% 6 14.05.2027 -
Francisco Conceição Juventus Aktiv 156 / 166 40% 2 14.05.2027 -
Bosun Lawal Stoke City Aktiv 134 / 127 40% 1 14.05.2027 -
Conor Gallagher Tottenham Aktiv 159 / 152 40% 1 14.05.2027 -
James Maddison Tottenham Aktiv 155 / 152 40% 1 12.05.2027 -
Carlos Alcaraz Everton Aktiv 144 / 152 40% 1 12.05.2027 -
Giacomo Raspadori Atalanta Aktiv 153 / 143 40% 2 09.05.2027 -
Mateo Pellegrino Fiorentina Aktiv 150 / 134 40% 2 08.05.2027 -
Nico González Newcastle United Aktiv 162 / 168 40% 1 08.05.2027 -
Dwight McNeil Crystal Palace Aktiv 148 / 138 40% 1 08.05.2027 -
Dávid Strelec Middlesbrough Aktiv 139 / 139 40% 2 07.05.2027 -
Jarrod Bowen West Ham United Aktiv 157 / 157 40% 1 07.05.2027 Mehr Infos nötig
Marco Asensio Fenerbahce Aktiv 156 / 150 40% 6 05.05.2027 -
Matt O'Riley Brighton Aktiv 146 / 149 40% 1 05.05.2027 -
Amine Adli Bournemouth Aktiv 152 / 140 40% 1 04.05.2027 -
Finn Azaz Southampton Aktiv 126 / 128 40% 1 02.05.2027 -
Morgan Whittaker Middlesbrough Aktiv 136 / 136 40% 1 01.05.2027 -
Dominic Calvert-Lewin Leeds United Aktiv 152 / 135 40% 6 29.04.2027 -
Hwang Hee-Chan Wolverhampton Aktiv 125 / 131 40% 1 29.04.2027 -
Mohammed Kudus Tottenham Aktiv 150 / 148 40% 1 27.04.2027 -
Mateo Retegui Tottenham Aktiv 170 / 154 40% 1 27.04.2027 -
Barış Alper Yılmaz Galatasaray Aktiv 163 / 150 40% 3 26.04.2027 -
Brian Brobbey Sunderland Aktiv 150 / 146 40% 3 26.04.2027 -
Ricardo Horta Braga Aktiv 150 / 155 40% 11 24.04.2027 -
Víctor Gómez Braga Aktiv 133 / 141 40% 7 24.04.2027 -
Francisco Moura Lusitânia Lourosa Aktiv 133 / 137 40% 7 24.04.2027 -
Pepê Porto Aktiv 148 / 152 40% 10 23.04.2027 -
Roberto Fernández Braga Aktiv 141 / 134 40% 5 23.04.2027 -
Romelu Castagne KV Oostende Aktiv 138 / 127 40% 3 21.04.2027 -
Alberto Costa Porto Aktiv 135 / 149 40% 5 21.04.2027 -
Gonçalo Ramos AC Milan Aktiv 159 / 152 40% 1 21.04.2027 -
Diego Lainez Tigres Aktiv 143 / 137 40% 7 19.04.2027 -
Santi García Gil Vicente Aktiv 140 / 140 40% 8 16.04.2027 -
Geny Sporting CP Aktiv 143 / 136 40% 2 16.04.2027 -
Iván Fresneda Sporting CP Aktiv 140 / 140 40% 7 15.04.2027 -
Nuno Santos Sporting CP Aktiv 131 / 146 40% 3 14.04.2027 -
Andrea Carboni Monza Aktiv 138 / 133 40% 1 12.04.2027 -
Soungoutou Magassa West Ham United Aktiv 127 / 130 40% 1 12.04.2027 -
Agustín Palavecino Cruz Azul Aktiv 150 / 135 40% 6 10.04.2027 -
João Carvalho Estoril Praia Aktiv 123 / 129 40% 2 10.04.2027 -
Nicolás Fernández Mercau Shakhtar Aktiv 127 / 125 40% 3 09.04.2027 -
Max Bird Birmingham Aktiv 127 / 134 40% 2 09.04.2027 -
Luís Esteves Atlas Aktiv 121 / 136 40% 2 09.04.2027 -
Callum Doyle Wrexham Aktiv 126 / 135 40% 1 09.04.2027 -
Razvan Balasa Crvena Zvezda Aktiv 161 / 152 40% 4 07.04.2027 -
Pau Víctor AVS Aktiv 142 / 129 40% 10 07.04.2027 Beobachten
Luka Jović AEK Aktiv 147 / 128 40% 5 07.04.2027 -
Eduardo Quaresma Sporting CP Aktiv 148 / 142 40% 2 06.04.2027 -
Yoan Bonny Inter Aktiv 139 / 153 40% 3 06.04.2027 -
Toni Fruk KV Mechelen Aktiv 136 / 142 40% 1 06.04.2027 -
Aidan Morris Middlesbrough Aktiv 133 / 125 40% 1 06.04.2027 -
Shea Charles Southampton Aktiv 134 / 136 40% 1 05.04.2027 -
Jacques Ekomié Wrexham Aktiv 136 / 122 40% 1 05.04.2027 -
Dodi Lukébakio Benfica Aktiv 154 / 152 40% 5 01.04.2027 -
Paulinho Palmeiras Aktiv 144 / 147 40% 16 01.04.2027 -
Musa Barrow Al-Khaleej Aktiv 131 / 139 40% 2 01.04.2027 -
Erick Sánchez OGC Nice Aktiv 138 / 136 40% 2 01.04.2027 -
Amine Gouiri Olympique de Marseille Aktiv 136 / 152 40% 2 30.03.2027 -
Jesús Ricardo Angulo Toluca Aktiv 132 / 122 40% 8 29.03.2027 -
Harry Clarke Preston Aktiv 118 / 121 40% 1 29.03.2027 -
Renato Sanches AVS Aktiv 143 / 123 40% 1 25.03.2027 -
Heorhii Sudakov Benfica Aktiv 151 / 144 40% 7 24.03.2027 -
Mario Dorgeles Braga Aktiv 122 / 136 40% 8 23.03.2027 -
Ozziel Herrera Tigres Aktiv 141 / 134 40% 1 22.03.2027 -
Félix Lemaréchal Club Brugge Aktiv 145 / 136 40% 4 21.03.2027 -
Rafik Guitane Estoril Praia Aktiv 127 / 130 40% 4 21.03.2027 -
Gianluca Prestianni Benfica Aktiv 143 / 141 40% 5 20.03.2027 -
Jørgen Strand Larsen Crystal Palace Aktiv 148 / 150 40% 3 16.03.2027 -
Jens Odgaard Bologna Aktiv 135 / 141 40% 1 16.03.2027 -
William Gomes Porto Aktiv 139 / 145 40% 7 14.03.2027 -
Anel Ahmedhodžić Burnley Aktiv 137 / 130 40% 1 14.03.2027 -
Hwang In-Beom Porto Aktiv 132 / 150 40% 3 11.03.2027 -
Jesús Angulo Tigres Aktiv 148 / 139 40% 4 10.03.2027 -
Orbelín Pineda Monterrey Aktiv 148 / 133 40% 4 07.03.2027 -
Ivan Toney Al-Ahli Aktiv 153 / 148 40% 7 03.03.2027 -
Hamza Igamane LOSC Lille Aktiv 132 / 135 40% 1 03.03.2027 -
Georges-Kévin Nkoudou Al-Diriyah Aktiv 136 / 133 40% 1 01.03.2027 -
Yoane Wissa Newcastle United Aktiv 132 / 138 40% 9 24.02.2027 -
Yehor Yarmoliuk Brentford Aktiv 145 / 145 40% 2 19.02.2027 -
Soufiane Rahimi Guadalajara Aktiv 125 / 134 40% 2 17.02.2027 -
Brian Rodríguez Club America Aktiv 125 / 137 40% 2 13.02.2027 -
Rodrigo Zalazar Sporting CP Aktiv 139 / 140 40% 6 06.02.2027 -
Diego Rossi Monterrey Aktiv 124 / 133 40% 2 04.02.2027 -
Tammy Abraham Aston Villa Aktiv 140 / 146 40% 3 03.02.2027 -
Fotis Ioannidis Rio Ave Aktiv 145 / 137 40% 2 03.02.2027 -
Christian Krasnodar Aktiv 134 / 129 40% 1 02.02.2027 -
Nuno Tavares Lazio Aktiv 157 / 143 40% 1 02.02.2027 -
Hany Mukhtar Spezia Aktiv 141 / 140 40% 1 31.01.2027 -
Adnan Courtois KV Oostende Aktiv 138 / 131 40% 1 31.01.2027 -
Tomás Araújo Benfica Aktiv 152 / 143 40% 8 29.01.2027 -
Jesús Orozco Chiquete Cruz Azul Aktiv 135 / 138 40% 2 29.01.2027 -
Ethan Galbraith Swansea City Aktiv 127 / 125 40% 1 29.01.2027 -
Juninho Pumas UNAM Aktiv 117 / 130 40% 3 28.01.2027 -
João Palhinha Benfica Aktiv 145 / 157 40% 5 26.01.2027 -
Luciano Acosta Fluminense Aktiv 136 / 130 40% 1 23.01.2027 -
Julián Quiñones Lokomotiv Moscow Aktiv 155 / 152 40% 3 21.01.2027 -
Gérson Cruzeiro Aktiv 150 / 143 40% 2 21.01.2027 -
Marcelo Allende Mamelodi Sundowns Aktiv 132 / 132 40% 1 21.01.2027 -
Rashid Rashid Sparta Prague Aktiv 138 / 138 40% 1 21.01.2027 -
Ansu Fati Monaco Aktiv 128 / 144 40% 2 18.01.2027 -
Che Adams Torino Aktiv 133 / 135 40% 3 17.01.2027 -
Andreas Pereira Palmeiras Aktiv 139 / 140 40% 1 15.01.2027 -
Rémi Lemoine Chamois Niortais Aktiv 146 / 157 40% 5 06.01.2027 -
Nicolás de la Cruz Flamengo Aktiv 146 / 132 40% 2 05.01.2027 -
Andrea Pinamonti Lazio Aktiv 128 / 139 40% 2 04.01.2027 -
Pedro Porro Tottenham Aktiv 136 / 144 40% 3 02.01.2027 -
Vitinho Botafogo Aktiv 146 / 139 40% 2 02.01.2027 -
Juan Pablo Freytes Fluminense Aktiv 120 / 131 40% 1 02.01.2027 -
Victor Froholdt Porto Aktiv 143 / 150 40% 7 31.12.2026 -
Lucas Piton Vasco da Gama Aktiv 132 / 135 40% 2 31.12.2026 -
Nathan Collins Brentford Aktiv 143 / 146 40% 1 31.12.2026 -
Florentino Luís Ipswich Town Aktiv 140 / 133 40% 1 27.12.2026 -
Gonçalo Inácio Sporting CP Aktiv 145 / 157 40% 6 24.12.2026 -
Tyrell Malacia Monaco Aktiv 148 / 126 40% 1 24.12.2026 -
Bright Arrey-Mbi Braga Aktiv 130 / 130 40% 2 23.12.2026 -
Ilay Camara Anderlecht Aktiv 126 / 139 40% 1 22.12.2026 -
Mathias De Amorim Famalicao Aktiv 117 / 134 40% 1 19.12.2026 -
Gustaf Lagerbielke Braga Aktiv 131 / 129 40% 4 18.12.2026 -
Dara O'Shea Ipswich Town Aktiv 138 / 139 40% 2 17.12.2026 -
Matheus Bidu Corinthians Aktiv 125 / 123 40% 2 17.12.2026 -
Dinis Pinto Moreirense Aktiv 119 / 132 40% 1 16.12.2026 -
Noah Sadiki Sunderland Aktiv 152 / 139 40% 1 16.12.2026 -
Pablo Felipe West Ham United Aktiv 121 / 131 40% 1 15.12.2026 -
Lukáš Červ Viktoria Plzen Aktiv 126 / 124 40% 1 15.12.2026 -
Emerson Royal Flamengo Aktiv 131 / 139 40% 1 14.12.2026 -
Marcos Antonio Sport Recife Aktiv 135 / 137 40% 3 11.12.2026 -
Matheuzinho Corinthians Aktiv 126 / 125 40% 1 11.12.2026 -
Juanlu Bournemouth Aktiv 138 / 140 40% 1 07.12.2026 Mehr Infos nötig
Gabriel Veron Porto Aktiv 119 / 128 40% 2 06.12.2026 -
Israel Reyes CSKA Moscow Verhandlung 137 / 137 68% 1 01.12.2026 Befürworten
Gustavo Marques Bragantino Aktiv 131 / 126 40% 1 01.12.2026 -
Ismaïla Sarr Crystal Palace Aktiv 151 / 149 40% 1 29.11.2026 -
Steven Bergwijn Al-Ittihad Aktiv 143 / 144 40% 1 27.11.2026 -
Nordi Mukiele Sunderland Aktiv 134 / 136 40% 1 27.11.2026 -
Caio Alexandre Bahia Aktiv 146 / 141 40% 1 27.11.2026 -
Gabriel Jesus Barcelona Aktiv 143 / 152 40% 8 25.11.2026 -
Petar Musa Adana Demirspor Aktiv 130 / 133 40% 2 23.11.2026 -
Pablo Rosario Porto Aktiv 131 / 132 40% 3 16.11.2026 -
Lee Hyun-Ju Arouca Aktiv 130 / 127 40% 1 15.11.2026 -
Zeno Debast Sporting CP Aktiv 140 / 133 40% 4 14.11.2026 -
Ángel Correa River Plate Aktiv 145 / 144 40% 8 14.11.2026 -
Joshua Zirkzee Manchester United Aktiv 152 / 149 40% 4 14.11.2026 -
Randal Kolo Muani Juventus Aktiv 150 / 138 40% 3 14.11.2026 -
Fabrício Bruno Cruzeiro Aktiv 130 / 130 40% 1 10.11.2026 -
Lorougnon Gohi Académico de Viseu Aktiv 124 / 119 40% 1 06.11.2026 -
Leon Goretzka Aston Villa Aktiv 167 / 149 40% 2 02.11.2026 Mehr Infos nötig
Alexey Miranchuk St. Gallen Aktiv 154 / 146 40% 3 30.10.2026 -
Leandro Barreiro Benfica Aktiv 126 / 135 40% 3 29.10.2026 -
Leonardo Borja La Equidad Aktiv 147 / 139 40% 1 24.10.2026 -
Taty Castellanos West Ham United Aktiv 145 / 140 40% 2 20.10.2026 -
Jean-Philippe Mateta Crystal Palace Aktiv 144 / 158 40% 3 17.10.2026 -
Vangelis Pavlidis Twente Aktiv 166 / 151 40% 1 17.10.2026 -
Alexander Bah Benfica Aktiv 125 / 137 40% 1 15.10.2026 -
Joaquín Piquerez Palmeiras Aktiv 129 / 138 40% 1 09.10.2026 -
Thorgan Witsel KV Oostende Aktiv 129 / 144 40% 1 09.10.2026 -
Luis Suárez Chelsea Aktiv 158 / 150 40% 1 09.10.2026 -
Renan Lodi Atlético Mineiro Aktiv 132 / 142 40% 3 08.10.2026 -
Youssef En-Nesyri Al-Ittihad Aktiv 130 / 147 40% 3 05.10.2026 -
Noah Okafor Leeds United Aktiv 127 / 138 40% 1 05.10.2026 -
Eddie Nketiah Crystal Palace Aktiv 147 / 132 40% 1 02.10.2026 -
Guilherme Arana Fluminense Aktiv 137 / 132 40% 2 28.09.2026 -
Mauro Arambarri River Plate Aktiv 153 / 159 40% 2 26.09.2026 -
William Cruzeiro Aktiv 126 / 139 40% 1 26.09.2026 -
Léo Ortiz Flamengo Aktiv 143 / 134 40% 1 24.09.2026 -
Sergi Altimira Sporting CP Aktiv 124 / 133 40% 1 20.09.2026 -
Facundo Colidio Vasco da Gama Aktiv 133 / 124 40% 1 19.09.2026 -
Tamble Monteiro Rio Ave Aktiv 120 / 110 40% 1 19.09.2026 -
Thiago Brentford Aktiv 147 / 148 40% 2 16.09.2026 -
Yankuba Minteh Brighton Aktiv 145 / 154 40% 1 03.09.2026 -
Guus Til PSV Aktiv 136 / 145 40% 1 31.08.2026 -
Vinicinho Bragantino Aktiv 131 / 128 40% 1 31.08.2026 -
Luke Shaw Manchester United Aktiv 151 / 159 40% 1 25.08.2026 -
Brais Méndez Columbus Crew Aktiv 151 / 155 40% 1 19.08.2026 -
João Simões Sporting CP Aktiv 136 / 132 40% 1 19.08.2026 -
Breel Embolo Atlanta United FC Aktiv 125 / 137 40% 1 15.08.2026 -
Lucas Veríssimo Santos Aktiv 131 / 130 40% 1 15.08.2026 -
Marcos Llorente Atlético Madrid Aktiv 170 / 158 40% 1 07.08.2026 -
Antony Betis Aktiv 145 / 158 40% 1 06.08.2026 -
Endrick Real Madrid Aktiv 156 / 154 40% 1 05.08.2026 -
Gonçalo Guedes Real Sociedad Aktiv 147 / 156 40% 1 05.08.2026 -
Andreas Christensen Barcelona Aktiv 139 / 146 40% 1 04.08.2026 -
Karim Adeyemi Barcelona Aktiv 161 / 159 40% 1 04.08.2026 -